Aviation Digital Data Service (ADDS)

Output produced by TAFs form (1053 UTC 16 July 2018)
found at http://www.aviationweather.gov/adds/tafs/
 
METAR text: WSSS 161030Z 17013KT 150V230 9999 FEW020 BKN300 30/23 Q1006 NOSIG
Conditions at: WSSS (SINGAPORE/CHANGI, SG) observed 1030 UTC 16 July 2018
Temperature: 30.0°C (86°F)
Dewpoint: 23.0°C (73°F) [RH = 66%]
Pressure (altimeter): 29.70 inches Hg (1006.0 mb)
Winds: from the S (170 degrees) at 15 MPH (13 knots; 6.8 m/s)
Visibility: 6 or more miles (10+ km)
Ceiling: 30000 feet AGL
Clouds: few clouds at 2000 feet AGL
broken clouds at 30000 feet AGL
Weather: no significant weather observed at this time

Forecast for: WSSS (SINGAPORE/CHANGI, SG)
Text: TAF AMD WSSS 160800Z 1608/1712 18009KT 9999 FEW018CB SCT020
Forecast period: 0800 UTC 16 July 2018 to 1200 UTC 17 July 2018
Forecast type: FROM: standard forecast or significant change
Winds: from the S (180 degrees) at 10 MPH (9 knots; 4.7 m/s)
Visibility: 6 or more miles (10+ km)
Clouds: few clouds at 1800 feet AGL
scattered clouds at 2000 feet AGL
Weather: no significant weather forecast for this period